Pagrindinis puslapis
METAR-TAF:

METAR-TAF

Oro uostai :

Kiutahija, Turkija

platuma: 39-06-41N, ilguma: 30-07-48E, Aukštis: 1013 m

Dabartinis oras

Ataskaita buvo paskelbta 12 valandos ir 29 minutes, ne 10:50 UTC
Vėjas 16 kt iš Rytų/Pietryčių
Temperatūra 16°C
Drėgmė 45%
Slėgis 1009 hPa
Matomumas 10 km arba daugiau
Išsisklaidę debesys ne aukštis 3500 ft
Su prošvaistėmis ne aukštis 10000 ft

METAR: LTBZ 051050Z 12016KT 9999 SCT035 BKN100 16/04 Q1009

Laikas: 02:19 (23:19 UTC)

Prognozė

Ataskaita buvo paskelbta 3 valandos ir 39 minutes, ne 19:40 UTC
Prognozė galioja nuo 05 metu 21 UTC su 06 metu 06 UTC
Vėjas 2 kt nuo kintamojo kryptimis
Matomumas 10 km arba daugiau
Išsisklaidę debesys ne aukštis 3500 ft
Su prošvaistėmis ne aukštis 10000 ft
Laikinai
nuo 05 metu 21 UTC su 05 metu 24 UTC
lietus

TAF: LTBZ 051940Z 0521/0606 VRB02KT 9999 SCT035 BKN100 TEMPO 0521/0524 -SHRA

Orai ataskaitas ir orų prognozės (METAR, TAF).

turimą stotys yra geltonos ir raudonos taškus žemėlapyje.

Perkelti pele per norėdami pamatyti stoties vardą.

Tada spustelėkite, norėdami matyti oro stebėjimo ir prognozės.

Norėdami pakeisti žemėlapį: spustelėkite ant žalios mygtukų su juodo kryžiaus žemyn,; žalią mygtuką su brūkšneliu, jei norite nutolinti; arba žalių rodyklių gretimoms žemėlapius.


METAR-TAF: